Time;durP1;ratioP1;P1;durP2;ratioP2;P2;SDS_P1;SDS_P2;PMS_P1;PMS_P2;Temp;Humidity;BMP_temperature;BMP_pressure;BME280_temperature;BME280_humidity;BME280_pressure;Samples;Min_cycle;Max_cycle;Signal;HPM_P1;HPM_P2
2024/01/17 00:01:04;;;;;;;10.55;5.45;;;-2.70;99.90;;;;;;5051216;28;20201;-60
2024/01/17 00:03:32;;;;;;;12.30;5.40;;;-2.70;99.90;;;;;;5051230;28;20234;-60
2024/01/17 00:06:01;;;;;;;13.20;5.45;;;-2.70;99.90;;;;;;5051502;28;20259;-60
2024/01/17 00:08:29;;;;;;;13.20;5.88;;;-2.70;99.90;;;;;;5051068;28;20209;-60
2024/01/17 00:10:57;;;;;;;11.07;5.25;;;-2.70;99.90;;;;;;5050936;28;20210;-60
2024/01/17 00:13:25;;;;;;;9.57;4.80;;;-2.70;99.90;;;;;;5050935;28;20261;-59
2024/01/17 00:15:53;;;;;;;7.63;4.72;;;-2.70;99.90;;;;;;5051326;28;20231;-60
2024/01/17 00:18:21;;;;;;;9.35;4.97;;;-2.70;99.90;;;;;;5050596;28;20647;-60
2024/01/17 00:20:49;;;;;;;10.55;5.20;;;-2.70;99.90;;;;;;5050944;28;20252;-60
2024/01/17 00:23:18;;;;;;;11.57;5.65;;;-2.70;99.90;;;;;;5051117;28;20225;-61
2024/01/17 00:25:46;;;;;;;11.02;5.88;;;-2.70;99.90;;;;;;5051001;28;20237;-60
2024/01/17 00:28:14;;;;;;;9.60;5.13;;;-2.70;99.90;;;;;;5051149;28;20672;-60
2024/01/17 00:30:42;;;;;;;11.13;5.85;;;-2.60;99.90;;;;;;5051061;28;20210;-59
2024/01/17 00:33:10;;;;;;;11.57;5.05;;;-2.70;99.90;;;;;;5050875;28;20238;-60
2024/01/17 00:35:39;;;;;;;16.23;5.68;;;-2.60;99.90;;;;;;5050931;28;20236;-60
2024/01/17 00:38:07;;;;;;;9.00;5.03;;;-2.60;99.90;;;;;;5050684;28;20209;-60
2024/01/17 00:40:36;;;;;;;11.25;5.53;;;-2.60;99.90;;;;;;5050952;28;20289;-60
2024/01/17 00:43:04;;;;;;;14.55;6.30;;;-2.60;99.90;;;;;;5050915;28;20267;-60
2024/01/17 00:45:32;;;;;;;10.60;5.72;;;-2.60;99.90;;;;;;5050946;28;20240;-60
2024/01/17 00:48:00;;;;;;;11.52;6.30;;;-2.60;99.90;;;;;;5050765;28;20202;-60
2024/01/17 00:50:28;;;;;;;12.35;6.78;;;-2.60;99.90;;;;;;5052423;28;20776;-60
2024/01/17 00:52:56;;;;;;;15.70;6.57;;;-2.60;99.90;;;;;;5054309;28;20276;-61
2024/01/17 00:55:23;;;;;;;11.65;6.95;;;-2.60;99.90;;;;;;5067243;28;20222;-60
2024/01/17 00:57:53;;;;;;;10.95;6.32;;;-2.60;99.90;;;;;;5074395;28;20236;-60
2024/01/17 01:00:21;;;;;;;15.02;6.60;;;-2.60;99.90;;;;;;5074372;28;20318;-61
2024/01/17 01:02:49;;;;;;;12.80;6.95;;;-2.60;99.90;;;;;;5074161;28;20624;-60
2024/01/17 01:05:17;;;;;;;11.13;6.78;;;-2.60;99.90;;;;;;5046012;28;20253;-60
2024/01/17 01:07:47;;;;;;;13.20;6.32;;;-2.60;99.90;;;;;;5054453;28;20206;-60
2024/01/17 01:10:15;;;;;;;13.00;5.70;;;-2.70;99.90;;;;;;5054157;28;20202;-60
2024/01/17 01:12:43;;;;;;;9.93;5.85;;;-2.70;99.90;;;;;;5054122;28;20267;-59
2024/01/17 01:15:12;;;;;;;11.95;6.20;;;-2.70;99.90;;;;;;5054125;28;20279;-60
2024/01/17 01:17:40;;;;;;;13.52;5.82;;;-2.70;99.90;;;;;;5053947;28;20220;-60
2024/01/17 01:20:10;;;;;;;13.15;5.75;;;-2.80;99.90;;;;;;5054086;28;20206;-60
2024/01/17 01:22:37;;;;;;;14.55;6.45;;;-2.80;99.90;;;;;;5053904;28;20664;-60
2024/01/17 01:25:06;;;;;;;10.18;6.00;;;-2.80;99.90;;;;;;5054045;28;20257;-60
2024/01/17 01:27:34;;;;;;;8.57;5.78;;;-2.90;99.90;;;;;;5053796;28;20660;-60
2024/01/17 01:30:02;;;;;;;11.75;6.32;;;-2.90;99.90;;;;;;5053662;28;20249;-60
2024/01/17 01:32:31;;;;;;;10.95;5.88;;;-2.90;99.90;;;;;;5053893;28;20279;-60
2024/01/17 01:34:59;;;;;;;13.30;6.85;;;-2.90;99.90;;;;;;5053921;28;20314;-60
2024/01/17 01:37:27;;;;;;;14.32;6.43;;;-2.90;99.90;;;;;;5053582;28;20289;-60
2024/01/17 01:39:55;;;;;;;11.23;5.65;;;-2.90;99.90;;;;;;5053418;28;20774;-60
2024/01/17 01:42:23;;;;;;;11.32;5.18;;;-2.90;99.90;;;;;;5053597;28;20202;-60
2024/01/17 01:44:51;;;;;;;12.82;5.82;;;-2.90;99.90;;;;;;5053546;28;20329;-60
2024/01/17 01:47:18;;;;;;;11.48;5.90;;;-2.90;99.90;;;;;;5053637;28;20205;-60
2024/01/17 01:49:49;;;;;;;17.35;6.30;;;-2.90;99.90;;;;;;5053584;28;20213;-60
2024/01/17 01:52:20;;;;;;;12.00;5.88;;;-2.90;99.90;;;;;;5053435;28;20264;-60
2024/01/17 01:54:47;;;;;;;10.88;6.35;;;-3.00;99.90;;;;;;5053572;28;20319;-60
2024/01/17 01:57:16;;;;;;;14.00;6.20;;;-3.00;99.90;;;;;;5053021;28;20271;-60
2024/01/17 01:59:45;;;;;;;13.77;6.45;;;-3.00;99.90;;;;;;5053414;28;20214;-60
2024/01/17 02:02:13;;;;;;;14.35;6.65;;;-3.00;99.90;;;;;;5052031;28;20715;-60
2024/01/17 02:04:41;;;;;;;14.00;6.72;;;-3.00;99.90;;;;;;5052755;28;20315;-60
2024/01/17 02:07:11;;;;;;;11.77;6.22;;;-3.00;99.90;;;;;;5052025;28;20236;-60
2024/01/17 02:09:39;;;;;;;15.88;6.70;;;-3.00;99.90;;;;;;5052069;28;20206;-60
2024/01/17 02:12:08;;;;;;;14.88;6.03;;;-3.00;99.90;;;;;;5051817;28;20245;-60
2024/01/17 02:14:37;;;;;;;13.25;6.22;;;-3.00;99.90;;;;;;5052018;28;20705;-60
2024/01/17 02:17:05;;;;;;;15.90;6.60;;;-3.00;99.90;;;;;;5051945;28;20209;-60
2024/01/17 02:19:33;;;;;;;11.02;6.78;;;-3.10;99.90;;;;;;5051973;28;20234;-60
2024/01/17 02:22:01;;;;;;;14.38;6.80;;;-3.10;99.90;;;;;;5051505;28;20206;-59
2024/01/17 02:24:31;;;;;;;13.07;6.63;;;-3.10;99.90;;;;;;5051863;28;20275;-60
2024/01/17 02:27:00;;;;;;;17.35;6.70;;;-3.10;99.90;;;;;;5051853;28;20213;-60
2024/01/17 02:29:29;;;;;;;13.65;7.20;;;-3.10;99.90;;;;;;5051853;28;20202;-60
2024/01/17 02:31:57;;;;;;;16.65;6.95;;;-3.10;99.90;;;;;;5051333;28;20293;-60
2024/01/17 02:34:25;;;;;;;15.98;6.45;;;-3.20;99.90;;;;;;5048777;28;20283;-60
2024/01/17 02:36:53;;;;;;;13.25;6.82;;;-3.20;99.90;;;;;;5051894;28;20210;-60
2024/01/17 02:39:21;;;;;;;10.95;6.25;;;-3.20;99.90;;;;;;5051694;28;20298;-60
2024/01/17 02:41:50;;;;;;;10.95;6.53;;;-3.20;99.90;;;;;;5051454;28;20244;-60
2024/01/17 02:44:18;;;;;;;16.30;6.90;;;-3.20;99.90;;;;;;5051339;28;20218;-61
2024/01/17 02:46:46;;;;;;;20.60;8.60;;;-3.20;99.90;;;;;;5051537;28;20665;-60
2024/01/17 02:49:19;;;;;;;22.60;10.23;;;-3.20;99.90;;;;;;5051501;28;20233;-60
2024/01/17 02:51:47;;;;;;;28.52;10.88;;;-3.20;99.90;;;;;;5051459;28;20206;-60
2024/01/17 02:54:15;;;;;;;22.52;10.35;;;-3.20;99.90;;;;;;5051037;28;20284;-60
2024/01/17 02:56:43;;;;;;;22.23;9.40;;;-3.20;99.90;;;;;;5051509;28;20213;-60
2024/01/17 02:59:12;;;;;;;19.10;8.95;;;-3.20;99.90;;;;;;5051100;28;20821;-60
2024/01/17 03:01:40;;;;;;;15.13;7.80;;;-3.20;99.90;;;;;;5051356;28;20273;-60
2024/01/17 03:04:07;;;;;;;12.18;6.90;;;-3.20;99.90;;;;;;5014951;28;1041135;-60
2024/01/17 03:06:35;;;;;;;16.75;7.90;;;-3.20;99.90;;;;;;5052101;28;20256;-60
2024/01/17 03:09:03;;;;;;;15.75;7.38;;;-3.20;99.90;;;;;;5051881;28;20217;-60
2024/01/17 03:11:32;;;;;;;15.02;6.28;;;-3.20;99.90;;;;;;5051688;28;20213;-60
2024/01/17 03:14:00;;;;;;;11.73;6.72;;;-3.20;99.90;;;;;;5051569;28;20238;-60
2024/01/17 03:16:29;;;;;;;19.58;8.90;;;-3.20;99.90;;;;;;5052003;28;20725;-60
2024/01/17 03:18:57;;;;;;;18.67;9.70;;;-3.30;99.90;;;;;;5051828;28;20206;-60
2024/01/17 03:21:25;;;;;;;17.27;6.97;;;-3.20;99.90;;;;;;5051428;28;20206;-60
2024/01/17 03:23:53;;;;;;;12.88;7.25;;;-3.20;99.90;;;;;;5051582;28;20291;-60
2024/01/17 03:26:21;;;;;;;11.43;6.82;;;-3.20;99.90;;;;;;5051658;28;20210;-60
2024/01/17 03:28:49;;;;;;;11.35;7.18;;;-3.30;99.90;;;;;;5051741;28;20205;-60
2024/01/17 03:31:17;;;;;;;9.38;6.38;;;-3.30;99.90;;;;;;5051419;28;20702;-60
2024/01/17 03:33:46;;;;;;;11.95;6.68;;;-3.30;99.90;;;;;;5051381;28;20257;-60
2024/01/17 03:36:14;;;;;;;13.52;6.70;;;-3.30;99.90;;;;;;5051419;28;20683;-60
2024/01/17 03:38:42;;;;;;;13.63;6.55;;;-3.30;99.90;;;;;;5051266;28;20591;-60
2024/01/17 03:41:10;;;;;;;10.90;6.15;;;-3.30;99.90;;;;;;5051561;28;20296;-60
2024/01/17 03:43:38;;;;;;;12.55;7.03;;;-3.30;99.90;;;;;;5051490;28;20264;-59
2024/01/17 03:46:06;;;;;;;12.73;6.40;;;-3.30;99.90;;;;;;5051608;28;20646;-59
2024/01/17 03:48:34;;;;;;;15.98;7.50;;;-3.40;99.90;;;;;;5051461;28;20259;-60
2024/01/17 03:51:04;;;;;;;12.93;6.93;;;-3.30;99.90;;;;;;5051073;28;20206;-59
2024/01/17 03:53:31;;;;;;;12.65;6.78;;;-3.30;99.90;;;;;;5051198;28;20205;-60
2024/01/17 03:55:59;;;;;;;16.73;7.00;;;-3.30;99.90;;;;;;5051610;28;20209;-59
2024/01/17 03:58:27;;;;;;;13.20;6.82;;;-3.30;99.90;;;;;;5043470;28;20202;-59
2024/01/17 04:00:58;;;;;;;11.30;6.43;;;-3.40;99.90;;;;;;5051262;28;20206;-59
2024/01/17 04:03:26;;;;;;;17.08;7.18;;;-3.40;99.90;;;;;;5051324;28;20206;-60
2024/01/17 04:05:54;;;;;;;12.70;6.72;;;-3.40;99.90;;;;;;5051575;28;20214;-58
2024/01/17 04:08:23;;;;;;;15.15;6.90;;;-3.40;99.90;;;;;;5051321;28;20217;-58
2024/01/17 04:10:51;;;;;;;18.55;6.78;;;-3.40;99.90;;;;;;5051318;28;20205;-60
2024/01/17 04:13:19;;;;;;;12.45;7.05;;;-3.40;99.90;;;;;;5051139;28;20244;-57
2024/01/17 04:15:47;;;;;;;15.35;7.40;;;-3.40;99.90;;;;;;5057522;28;20698;-59
2024/01/17 04:18:15;;;;;;;14.95;6.88;;;-3.40;99.90;;;;;;5070922;28;20201;-60
2024/01/17 04:20:43;;;;;;;13.82;6.85;;;-3.40;99.90;;;;;;5070939;28;20205;-58
2024/01/17 04:23:11;;;;;;;11.77;7.03;;;-3.40;99.90;;;;;;5071034;28;20216;-59
2024/01/17 04:25:41;;;;;;;16.15;6.78;;;-3.40;99.90;;;;;;5073290;28;20650;-60
2024/01/17 04:28:08;;;;;;;11.27;6.60;;;-3.40;99.90;;;;;;5073523;28;20230;-60
2024/01/17 04:30:36;;;;;;;21.45;7.00;;;-3.40;99.90;;;;;;5054277;28;20743;-59
2024/01/17 04:33:05;;;;;;;12.73;6.90;;;-3.40;99.90;;;;;;5054392;28;20706;-60
2024/01/17 04:35:33;;;;;;;13.85;7.80;;;-3.40;99.90;;;;;;5067485;28;20236;-59
2024/01/17 04:38:01;;;;;;;17.48;7.80;;;-3.40;99.90;;;;;;5074912;28;20209;-59
2024/01/17 04:40:29;;;;;;;15.65;6.88;;;-3.40;99.90;;;;;;5074657;28;20752;-60
2024/01/17 04:42:58;;;;;;;17.38;7.63;;;-3.40;99.90;;;;;;5074741;28;20236;-60
2024/01/17 04:45:30;;;;;;;15.73;7.35;;;-3.40;99.90;;;;;;5074612;28;20346;-60
2024/01/17 04:47:58;;;;;;;14.63;6.85;;;-3.40;99.90;;;;;;5074815;28;20630;-60
2024/01/17 04:50:26;;;;;;;10.65;5.72;;;-3.40;99.90;;;;;;5074424;28;20701;-58
2024/01/17 04:52:54;;;;;;;14.23;7.05;;;-3.40;99.90;;;;;;5074489;28;20205;-59
2024/01/17 04:55:22;;;;;;;16.30;6.78;;;-3.30;99.90;;;;;;5074454;28;20281;-60
2024/01/17 04:57:50;;;;;;;14.88;7.18;;;-3.30;99.90;;;;;;5074287;28;20241;-60
2024/01/17 05:00:19;;;;;;;11.77;7.45;;;-3.30;99.90;;;;;;5072543;28;20205;-60
2024/01/17 05:02:47;;;;;;;14.95;7.55;;;-3.30;99.90;;;;;;5054309;28;20562;-60
2024/01/17 05:05:15;;;;;;;14.10;6.72;;;-3.30;99.90;;;;;;5078347;22;20222;-54
2024/01/17 05:07:44;;;;;;;15.18;6.75;;;-3.20;99.90;;;;;;5054302;28;20206;-54
2024/01/17 05:10:13;;;;;;;15.02;7.40;;;-3.20;99.90;;;;;;5054146;28;20275;-56
2024/01/17 05:12:41;;;;;;;14.95;8.18;;;-3.20;99.90;;;;;;5054207;28;20577;-54
2024/01/17 05:15:09;;;;;;;13.10;6.95;;;-3.20;99.90;;;;;;5054100;28;20265;-54
2024/01/17 05:17:38;;;;;;;19.08;7.43;;;-3.10;99.90;;;;;;5054283;28;20240;-54
2024/01/17 05:20:09;;;;;;;14.30;7.53;;;-3.10;99.90;;;;;;5054057;28;20202;-54
2024/01/17 05:22:39;;;;;;;14.50;7.95;;;-3.10;99.90;;;;;;5053948;28;20263;-54
2024/01/17 05:25:11;;;;;;;18.02;7.75;;;-3.10;99.90;;;;;;5054093;28;20268;-54
2024/01/17 05:27:39;;;;;;;16.45;7.93;;;-3.00;99.90;;;;;;5054214;28;20283;-54
2024/01/17 05:30:09;;;;;;;10.75;6.50;;;-3.00;99.90;;;;;;5053679;28;20229;-55
2024/01/17 05:32:44;;;;;;;19.50;8.38;;;-3.00;99.90;;;;;;5051470;28;20654;-54
2024/01/17 05:35:12;;;;;;;17.67;7.07;;;-3.00;99.90;;;;;;5053212;28;20316;-56
2024/01/17 05:37:41;;;;;;;18.42;8.25;;;-3.00;99.90;;;;;;5053545;28;20198;-56
2024/01/17 05:40:09;;;;;;;13.25;7.88;;;-3.00;99.90;;;;;;5050450;28;20292;-55
2024/01/17 05:42:38;;;;;;;14.43;7.93;;;-3.00;99.90;;;;;;5053528;28;20285;-54
2024/01/17 05:45:07;;;;;;;12.38;6.80;;;-3.00;99.90;;;;;;5053740;28;20236;-54
2024/01/17 05:47:36;;;;;;;14.07;7.85;;;-2.90;99.90;;;;;;5053534;28;20205;-54
2024/01/17 05:50:09;;;;;;;11.38;7.40;;;-2.90;99.90;;;;;;5053580;28;20248;-54
2024/01/17 05:52:38;;;;;;;14.77;7.55;;;-2.90;99.90;;;;;;5053522;28;20214;-56
2024/01/17 05:55:07;;;;;;;16.70;8.02;;;-2.90;99.90;;;;;;5053374;28;20716;-54
2024/01/17 05:57:35;;;;;;;13.95;8.20;;;-2.90;99.90;;;;;;5053315;28;20205;-54
2024/01/17 06:00:04;;;;;;;17.63;8.77;;;-2.80;99.90;;;;;;5053220;28;20275;-54
2024/01/17 06:02:32;;;;;;;19.85;8.30;;;-2.80;99.90;;;;;;5053049;28;20202;-55
2024/01/17 06:05:00;;;;;;;15.48;7.75;;;-2.80;99.90;;;;;;5053255;28;20241;-54
2024/01/17 06:07:29;;;;;;;18.98;9.05;;;-2.80;99.90;;;;;;5051710;28;20247;-57
2024/01/17 06:09:57;;;;;;;18.60;9.05;;;-2.80;99.90;;;;;;5052282;28;20206;-58
2024/01/17 06:12:25;;;;;;;14.40;7.50;;;-2.70;99.90;;;;;;5052929;28;20220;-57
2024/01/17 06:14:53;;;;;;;14.30;8.18;;;-2.70;99.90;;;;;;5052991;28;20217;-58
2024/01/17 06:17:21;;;;;;;23.35;8.13;;;-2.70;99.90;;;;;;5053075;28;20212;-60
2024/01/17 06:19:49;;;;;;;18.60;8.10;;;-2.70;99.90;;;;;;5052386;28;20252;-59
2024/01/17 06:22:18;;;;;;;15.68;7.55;;;-2.70;99.90;;;;;;5052951;28;20296;-59
2024/01/17 06:24:48;;;;;;;13.45;7.80;;;-2.80;99.90;;;;;;5052863;28;20686;-59
2024/01/17 06:27:16;;;;;;;12.90;7.95;;;-2.80;99.90;;;;;;5052790;28;20218;-58
2024/01/17 06:29:44;;;;;;;16.67;7.05;;;-2.80;99.90;;;;;;5052482;28;20977;-59
2024/01/17 06:32:12;;;;;;;18.83;7.80;;;-2.80;99.90;;;;;;5052869;28;20268;-58
2024/01/17 06:34:40;;;;;;;14.27;8.02;;;-2.80;99.90;;;;;;5052577;28;20241;-59
2024/01/17 06:37:08;;;;;;;16.15;7.55;;;-2.70;99.90;;;;;;5052701;28;20234;-58
2024/01/17 06:39:37;;;;;;;12.75;7.35;;;-2.70;99.90;;;;;;5052307;28;20213;-59
2024/01/17 06:42:06;;;;;;;19.00;8.52;;;-2.60;99.90;;;;;;5052565;28;20233;-59
2024/01/17 06:44:34;;;;;;;18.10;8.48;;;-2.50;99.90;;;;;;5052491;28;20228;-59
2024/01/17 06:47:03;;;;;;;13.63;7.22;;;-2.50;99.90;;;;;;5052247;28;20230;-58
2024/01/17 06:49:31;;;;;;;19.50;8.45;;;-2.40;99.90;;;;;;5051773;28;20198;-60
2024/01/17 06:51:59;;;;;;;15.93;7.25;;;-2.40;99.90;;;;;;5052335;28;20205;-59
2024/01/17 06:54:27;;;;;;;14.25;7.82;;;-2.40;99.90;;;;;;5051949;28;20205;-58
2024/01/17 06:56:55;;;;;;;14.13;8.25;;;-2.40;99.90;;;;;;5052485;28;20234;-58
2024/01/17 06:59:24;;;;;;;15.98;8.50;;;-2.30;99.90;;;;;;5052212;28;20214;-60
2024/01/17 07:01:52;;;;;;;16.67;8.07;;;-2.30;99.90;;;;;;5052046;28;20252;-60
2024/01/17 07:04:19;;;;;;;14.27;7.88;;;-2.30;99.90;;;;;;5052104;28;20245;-60
2024/01/17 07:06:47;;;;;;;15.43;7.97;;;-2.30;99.90;;;;;;5051236;28;20707;-60
2024/01/17 07:09:15;;;;;;;13.77;7.50;;;-2.20;99.90;;;;;;5043206;28;20205;-60
2024/01/17 07:11:43;;;;;;;10.95;7.18;;;-2.20;99.90;;;;;;5051952;28;20297;-59
2024/01/17 07:14:11;;;;;;;18.63;8.98;;;-2.20;99.90;;;;;;5050136;28;20198;-59
2024/01/17 07:16:40;;;;;;;14.30;7.63;;;-2.20;99.90;;;;;;5050869;28;20250;-60
2024/01/17 07:19:08;;;;;;;20.67;8.27;;;-2.10;99.90;;;;;;5051541;28;20758;-61
2024/01/17 07:21:39;;;;;;;13.55;8.30;;;-2.10;99.90;;;;;;5051660;28;20198;-60
2024/01/17 07:24:07;;;;;;;14.60;7.55;;;-2.10;99.90;;;;;;5051913;28;20268;-60
2024/01/17 07:26:35;;;;;;;15.25;7.65;;;-2.00;99.90;;;;;;5051636;28;20223;-60
2024/01/17 07:29:03;;;;;;;15.88;8.43;;;-2.00;99.90;;;;;;5051688;28;20206;-60
2024/01/17 07:31:31;;;;;;;15.27;7.90;;;-2.00;99.90;;;;;;5051538;28;20233;-59
2024/01/17 07:34:00;;;;;;;15.40;7.90;;;-2.00;99.90;;;;;;5051454;28;20209;-60
2024/01/17 07:36:28;;;;;;;12.02;7.40;;;-2.00;99.90;;;;;;5051931;28;20229;-60
2024/01/17 07:38:56;;;;;;;21.10;9.25;;;-2.00;99.90;;;;;;5051607;28;20325;-60
2024/01/17 07:41:24;;;;;;;17.33;8.25;;;-2.00;99.90;;;;;;5048217;28;20243;-60
2024/01/17 07:43:52;;;;;;;14.35;7.93;;;-2.00;99.90;;;;;;5050975;28;20570;-60
2024/01/17 07:46:19;;;;;;;14.93;8.30;;;-1.90;99.90;;;;;;5051215;28;20268;-59
2024/01/17 07:48:47;;;;;;;14.40;7.97;;;-1.90;99.90;;;;;;5050971;28;20267;-59
2024/01/17 07:51:17;;;;;;;14.00;7.80;;;-1.90;99.90;;;;;;5050644;28;20294;-59
2024/01/17 07:53:45;;;;;;;14.38;8.30;;;-1.90;99.90;;;;;;5050510;28;20592;-61
2024/01/17 07:56:13;;;;;;;17.63;8.57;;;-1.80;99.90;;;;;;5050248;28;20721;-60
2024/01/17 07:58:41;;;;;;;13.50;8.45;;;-1.80;99.90;;;;;;5050932;28;20233;-61
2024/01/17 08:01:09;;;;;;;18.00;8.25;;;-1.80;99.90;;;;;;5049635;28;20209;-61
2024/01/17 08:03:37;;;;;;;13.13;7.72;;;-1.80;99.90;;;;;;5051160;28;20205;-59
2024/01/17 08:06:06;;;;;;;17.73;8.50;;;-1.80;99.90;;;;;;5050367;28;20233;-61
2024/01/17 08:08:36;;;;;;;13.57;8.50;;;-1.70;99.90;;;;;;5049136;28;20249;-60
2024/01/17 08:11:04;;;;;;;16.05;8.85;;;-1.70;99.90;;;;;;5048506;28;20284;-60
2024/01/17 08:13:33;;;;;;;13.93;7.90;;;-1.70;99.90;;;;;;5050074;28;20205;-58
2024/01/17 08:16:02;;;;;;;18.25;8.18;;;-1.70;99.90;;;;;;5050416;28;20340;-60
2024/01/17 08:18:30;;;;;;;15.02;8.25;;;-1.70;99.90;;;;;;5050270;28;20217;-60
2024/01/17 08:20:58;;;;;;;20.20;8.88;;;-1.60;99.90;;;;;;5049909;28;20241;-60
2024/01/17 08:23:26;;;;;;;15.23;8.20;;;-1.60;99.90;;;;;;5050682;28;20213;-60
2024/01/17 08:25:55;;;;;;;18.88;9.38;;;-1.60;99.90;;;;;;5050070;28;20230;-61
2024/01/17 08:28:23;;;;;;;18.25;10.07;;;-1.50;99.90;;;;;;5050704;28;20237;-60
2024/01/17 08:30:51;;;;;;;19.45;10.35;;;-1.50;99.90;;;;;;5051158;28;20251;-60
2024/01/17 08:33:19;;;;;;;16.98;9.80;;;-1.50;99.90;;;;;;5050948;28;20245;-60
2024/01/17 08:35:48;;;;;;;17.35;9.02;;;-1.40;99.90;;;;;;5050844;28;20226;-60
2024/01/17 08:38:15;;;;;;;19.60;9.75;;;-1.40;99.90;;;;;;5050699;28;20236;-60
2024/01/17 08:40:43;;;;;;;20.55;10.02;;;-1.40;99.90;;;;;;5050743;28;20243;-59
2024/01/17 08:43:13;;;;;;;20.77;10.70;;;-1.40;99.90;;;;;;5051011;28;20213;-60
2024/01/17 08:45:40;;;;;;;16.30;9.20;;;-1.30;99.90;;;;;;5050918;28;20574;-59
2024/01/17 08:48:09;;;;;;;17.27;9.45;;;-1.30;99.90;;;;;;5048103;28;20212;-60
2024/01/17 08:50:37;;;;;;;18.40;10.00;;;-1.30;99.90;;;;;;5049059;28;20238;-60
2024/01/17 08:53:05;;;;;;;17.15;9.57;;;-1.30;99.90;;;;;;5050979;28;20217;-59
2024/01/17 08:55:33;;;;;;;21.30;10.20;;;-1.20;99.90;;;;;;5050893;28;20237;-60
2024/01/17 08:58:01;;;;;;;16.38;9.30;;;-1.20;99.90;;;;;;5050337;28;20234;-60
2024/01/17 09:00:30;;;;;;;16.33;9.68;;;-1.10;99.90;;;;;;5049890;28;20248;-59
2024/01/17 09:02:58;;;;;;;13.93;9.65;;;-1.10;99.90;;;;;;5050516;28;20555;-60
2024/01/17 09:05:26;;;;;;;17.50;9.30;;;-1.00;99.90;;;;;;5049982;28;20234;-61
2024/01/17 09:07:56;;;;;;;20.70;10.45;;;-1.00;99.90;;;;;;5047715;28;20206;-60
2024/01/17 09:10:25;;;;;;;18.52;10.15;;;-1.00;99.90;;;;;;5047133;28;20297;-61
2024/01/17 09:12:52;;;;;;;21.27;11.77;;;-0.90;99.90;;;;;;5049419;28;20229;-60
2024/01/17 09:15:22;;;;;;;19.52;10.50;;;-0.90;99.90;;;;;;5054881;28;20226;-61
2024/01/17 09:17:51;;;;;;;13.43;9.65;;;-0.80;99.90;;;;;;5053917;28;20240;-61
2024/01/17 09:20:20;;;;;;;18.88;9.80;;;-0.80;99.90;;;;;;5053493;28;20279;-60
2024/01/17 09:22:48;;;;;;;18.80;10.25;;;-0.80;99.90;;;;;;5054357;28;20214;-60
2024/01/17 09:25:17;;;;;;;19.30;9.88;;;-0.80;99.90;;;;;;5054319;28;20230;-60
2024/01/17 09:27:45;;;;;;;20.08;10.30;;;-0.80;99.90;;;;;;5053676;28;20210;-60
2024/01/17 09:30:13;;;;;;;16.73;9.40;;;-0.70;99.90;;;;;;5053279;28;20241;-59
2024/01/17 09:32:44;;;;;;;25.85;10.75;;;-0.70;99.90;;;;;;5053735;28;20213;-60
2024/01/17 09:35:13;;;;;;;19.45;10.68;;;-0.70;99.90;;;;;;5054083;28;20222;-59
2024/01/17 09:37:41;;;;;;;20.45;10.82;;;-0.60;99.90;;;;;;5053620;28;20284;-60
2024/01/17 09:40:10;;;;;;;23.27;10.48;;;-0.60;99.90;;;;;;5053184;28;20246;-60
2024/01/17 09:42:38;;;;;;;26.27;11.95;;;-0.50;99.90;;;;;;5053597;28;20585;-59
2024/01/17 09:45:07;;;;;;;27.33;12.25;;;-0.50;99.90;;;;;;5051622;28;20202;-60
2024/01/17 09:47:35;;;;;;;21.73;12.07;;;-0.50;99.90;;;;;;5051367;28;20202;-60
2024/01/17 09:50:03;;;;;;;20.90;11.45;;;-0.50;99.90;;;;;;5054902;28;20691;-60
2024/01/17 09:52:33;;;;;;;24.80;12.18;;;-0.50;99.90;;;;;;5056184;28;20255;-61
2024/01/17 09:55:01;;;;;;;28.38;11.85;;;-0.40;99.90;;;;;;5055700;28;20237;-61
2024/01/17 09:57:31;;;;;;;25.30;12.07;;;-0.40;99.90;;;;;;5055834;28;20275;-60
2024/01/17 10:00:00;;;;;;;24.55;11.77;;;-0.40;99.90;;;;;;5054737;28;20202;-60
2024/01/17 10:02:28;;;;;;;31.88;12.45;;;-0.40;99.90;;;;;;5055407;28;20283;-61
2024/01/17 10:04:57;;;;;;;20.38;11.23;;;-0.40;99.90;;;;;;5055280;28;20572;-59
2024/01/17 10:07:25;;;;;;;22.73;11.05;;;-0.30;99.90;;;;;;5051501;28;20202;-60
2024/01/17 10:09:54;;;;;;;25.27;11.50;;;-0.30;99.90;;;;;;5053048;28;20202;-60
2024/01/17 10:12:22;;;;;;;23.30;11.10;;;-0.30;99.90;;;;;;5053045;28;20634;-60
2024/01/17 10:14:50;;;;;;;19.88;11.43;;;-0.30;99.90;;;;;;5052578;28;20244;-60
2024/01/17 10:17:18;;;;;;;21.63;11.77;;;-0.30;99.90;;;;;;5052879;28;20663;-62
2024/01/17 10:19:46;;;;;;;25.45;11.50;;;-0.30;99.90;;;;;;5052315;28;20248;-61
2024/01/17 10:22:15;;;;;;;18.58;12.25;;;-0.30;99.90;;;;;;5051427;28;20206;-61
2024/01/17 10:24:43;;;;;;;23.80;12.48;;;-0.30;99.90;;;;;;5051955;28;20293;-59
2024/01/17 10:27:12;;;;;;;22.08;11.35;;;-0.20;99.90;;;;;;5052818;28;20221;-60
2024/01/17 10:29:40;;;;;;;21.98;11.38;;;-0.20;99.90;;;;;;5052229;28;20327;-61
2024/01/17 10:32:09;;;;;;;24.15;11.70;;;-0.20;99.90;;;;;;5052686;28;20744;-61
2024/01/17 10:34:37;;;;;;;22.88;11.98;;;-0.10;99.90;;;;;;5052497;28;20206;-60
2024/01/17 10:37:06;;;;;;;23.38;11.77;;;-0.10;99.90;;;;;;5052213;28;20669;-61
2024/01/17 10:39:34;;;;;;;24.30;11.80;;;-0.10;99.90;;;;;;5051627;28;20243;-61
2024/01/17 10:42:05;;;;;;;21.48;11.45;;;-0.10;99.90;;;;;;5052817;28;20233;-61
2024/01/17 10:44:34;;;;;;;19.83;11.88;;;-0.10;99.90;;;;;;5052153;28;20816;-61
2024/01/17 10:47:02;;;;;;;18.60;12.20;;;0.00;99.90;;;;;;5052468;28;20312;-60
2024/01/17 10:49:30;;;;;;;22.50;11.98;;;0.00;99.90;;;;;;5051988;28;20194;-61
2024/01/17 10:52:01;;;;;;;20.90;12.30;;;0.10;99.90;;;;;;5051932;28;20208;-60
2024/01/17 10:54:34;;;;;;;22.27;12.45;;;0.10;99.90;;;;;;5052300;28;20201;-61
2024/01/17 10:57:05;;;;;;;25.60;12.55;;;0.10;99.90;;;;;;5052553;28;20222;-60
2024/01/17 10:59:35;;;;;;;21.60;12.82;;;0.20;99.90;;;;;;5051728;28;20903;-61
2024/01/17 11:02:03;;;;;;;21.70;12.15;;;0.20;99.90;;;;;;5052148;28;20202;-61
2024/01/17 11:04:31;;;;;;;22.60;12.75;;;0.20;99.90;;;;;;5051705;28;20367;-61
2024/01/17 11:06:59;;;;;;;28.13;13.10;;;0.30;99.90;;;;;;5076103;22;20230;-73
2024/01/17 11:09:27;;;;;;;23.65;13.73;;;0.30;99.90;;;;;;5051669;28;20226;-72
2024/01/17 11:11:55;;;;;;;27.55;14.35;;;0.30;99.90;;;;;;5051353;28;20256;-72
2024/01/17 11:14:23;;;;;;;23.55;14.13;;;0.40;99.90;;;;;;5051681;28;20226;-72
2024/01/17 11:16:53;;;;;;;29.17;14.15;;;0.40;99.90;;;;;;5050989;28;20263;-72
2024/01/17 11:19:21;;;;;;;32.08;17.10;;;0.40;99.90;;;;;;5049910;28;20310;-72
2024/01/17 11:21:50;;;;;;;28.05;14.70;;;0.40;99.90;;;;;;5051025;28;20583;-72
2024/01/17 11:24:21;;;;;;;30.23;14.35;;;0.40;99.90;;;;;;5051373;28;20233;-72
2024/01/17 11:27:01;;;;;;;26.67;13.77;;;0.40;99.90;;;;;;5051476;28;20288;-72
2024/01/17 11:29:33;;;;;;;22.58;13.77;;;0.30;99.90;;;;;;5050854;28;20308;-72
2024/01/17 11:32:11;;;;;;;28.38;14.23;;;0.30;99.90;;;;;;5051549;28;20206;-72
2024/01/17 11:34:39;;;;;;;24.38;13.75;;;0.40;99.90;;;;;;5066009;22;20233;-60
2024/01/17 11:37:08;;;;;;;27.88;13.88;;;0.40;99.90;;;;;;5051105;28;20218;-61
2024/01/17 11:39:35;;;;;;;38.78;16.13;;;0.40;99.90;;;;;;5050508;28;20226;-60
2024/01/17 11:42:04;;;;;;;34.47;14.88;;;0.40;99.90;;;;;;5047876;28;20209;-61
2024/01/17 11:44:32;;;;;;;32.28;14.32;;;0.40;99.90;;;;;;5049849;28;20228;-61
2024/01/17 11:47:01;;;;;;;30.60;15.25;;;0.50;99.90;;;;;;5051636;28;20222;-61
2024/01/17 11:49:39;;;;;;;32.30;15.60;;;0.50;99.90;;;;;;5051279;28;20553;-60
2024/01/17 11:52:09;;;;;;;25.58;15.07;;;0.60;99.90;;;;;;5051515;28;20206;-61
2024/01/17 11:54:38;;;;;;;31.75;15.80;;;0.60;99.90;;;;;;5051087;28;20204;-61
2024/01/17 11:57:08;;;;;;;27.92;15.57;;;0.70;99.90;;;;;;5051649;28;20367;-61
2024/01/17 11:59:36;;;;;;;30.02;16.40;;;0.70;99.90;;;;;;5051044;28;20320;-61
2024/01/17 12:02:06;;;;;;;28.98;15.70;;;0.70;99.90;;;;;;5051363;28;20663;-61
2024/01/17 12:04:33;;;;;;;26.58;16.02;;;0.70;99.90;;;;;;5051112;28;20202;-60
2024/01/17 12:07:02;;;;;;;32.90;16.40;;;0.70;99.90;;;;;;5051321;28;20222;-61
2024/01/17 12:09:30;;;;;;;31.02;15.43;;;0.70;99.90;;;;;;5051309;28;20248;-61
2024/01/17 12:12:00;;;;;;;28.60;16.65;;;0.70;99.90;;;;;;5051505;28;20198;-61
2024/01/17 12:14:29;;;;;;;25.77;15.77;;;0.70;99.90;;;;;;5051159;28;20292;-61
2024/01/17 12:16:56;;;;;;;27.52;15.30;;;0.70;99.90;;;;;;5050743;28;20222;-60
2024/01/17 12:19:26;;;;;;;30.33;17.90;;;0.70;99.90;;;;;;5044156;28;20652;-60
2024/01/17 12:21:54;;;;;;;27.38;16.30;;;0.70;99.90;;;;;;5050024;28;20248;-60
2024/01/17 12:24:24;;;;;;;28.20;17.17;;;0.70;99.90;;;;;;5051006;28;20210;-61
2024/01/17 12:27:10;;;;;;;26.17;17.13;;;0.70;99.90;;;;;;5050758;28;20232;-60
2024/01/17 12:29:38;;;;;;;22.60;14.85;;;0.70;99.90;;;;;;5050103;28;20198;-60
2024/01/17 12:32:06;;;;;;;29.63;16.95;;;0.80;99.90;;;;;;5050352;28;20233;-60
2024/01/17 12:34:36;;;;;;;30.88;15.80;;;0.80;99.90;;;;;;5050407;28;20571;-60
2024/01/17 12:37:05;;;;;;;34.88;16.98;;;0.80;99.90;;;;;;5050943;28;20225;-61
2024/01/17 12:39:35;;;;;;;26.90;16.23;;;0.80;99.90;;;;;;5049974;28;20279;-60
2024/01/17 12:42:04;;;;;;;27.45;16.08;;;0.80;99.90;;;;;;5050447;28;20227;-61